M/T Arcadia — SY7849 — position and weather

sailwx.info

Track history (hours):
 
Tides and Currents Weather Stations Pressure Air Temp Water Temp Dewpoint Dewpoint Depression Visibility Wind Speed Wind Dir Waves Ship Positions

M/T Arcadia

Last reported at 2015-Aug-03 22:20 UTC. Time now 2015-Aug-04 19:54 UTC.
Position N 37°23' E 023°39'.

Length 76 m; draft 4.7 m.

Type: Tanker. MMSI: 240560000.

Date/timePositionNaut miles runAvg speedWind from/ knotsBaromVisibWave heightAir tempDewpointWater temp
2015-Aug-03 22:20N 37°23' E 023°39'6 7.5
2015-Aug-03 21:33N 37°28' E 023°35'8 8.1
2015-Aug-03 20:33N 37°35' E 023°29'7 7.2
2015-Aug-03 19:33N 37°39' E 023°22'7 6.6
2015-Aug-03 18:33N 37°44' E 023°16'8 7.7
2015-Aug-03 17:28N 37°51' E 023°10'5 0.3
2015-Aug-02 20:33N 37°55' E 023°06'2 0.4
2015-Aug-02 15:33N 37°53' E 023°08'8 8.5
2015-Aug-02 14:33N 37°46' E 023°14'8 8.1
2015-Aug-02 13:33N 37°40' E 023°20'9 8.7
2015-Aug-02 12:34N 37°37' E 023°30'8 7.8
2015-Aug-02 11:34N 37°30' E 023°35'7 7.4
2015-Aug-02 10:33N 37°23' E 023°36'7 7.3
2015-Aug-02 09:34N 37°17' E 023°31'8 7.5
2015-Aug-02 08:33N 37°10' E 023°27'8 7.6
2015-Aug-02 07:33N 37°03' E 023°24'16 6.9
2015-Aug-02 05:11N 36°48' E 023°15'4 6.2
2015-Aug-02 04:28N 36°44' E 023°13'75 7.3
2015-Aug-01 18:14N 35°40' E 023°59'7 7.9
2015-Aug-01 17:23N 35°34' E 024°03'16 1.1
2015-Aug-01 02:31N 35°49' E 024°01'11 8.1
2015-Aug-01 01:06N 36°00' E 023°58'4 8.0
2015-Aug-01 00:33N 36°05' E 023°57'10 8.0
2015-Jul-31 23:16N 36°15' E 023°54'48 7.9
2015-Jul-31 17:15N 37°01' E 023°42'5 7.8
2015-Jul-31 16:33N 37°07' E 023°41'8 7.2
2015-Jul-31 15:25N 37°15' E 023°39'6 7.0
2015-Jul-31 14:33N 37°21' E 023°38'7 7.1
2015-Jul-31 13:33N 37°27' E 023°35'8 7.5
2015-Jul-31 12:33N 37°34' E 023°30'7 7.1
2015-Jul-31 11:33N 37°39' E 023°24'7 6.6
2015-Jul-31 10:33N 37°43' E 023°17'8 7.6
2015-Jul-31 09:33N 37°49' E 023°12'8 0.4
2015-Jul-30 13:28N 37°55' E 023°05'1 0.5
2015-Jul-30 12:20N 37°55' E 023°06'4 1.5
2015-Jul-30 09:33N 37°52' E 023°10'9 8.6
2015-Jul-30 08:33N 37°44' E 023°15'8 7.9
2015-Jul-30 07:33N 37°39' E 023°23'8 7.9
2015-Jul-30 06:33N 37°36' E 023°32'8 8.0
2015-Jul-30 05:33N 37°28' E 023°36'9 8.5
2015-Jul-30 04:33N 37°20' E 023°37'8 8.4
2015-Jul-30 03:33N 37°12' E 023°38'9 8.6
2015-Jul-30 02:34N 37°03' E 023°41'9 8.6
2015-Jul-30 01:33N 36°55' E 023°43'8 8.5
2015-Jul-30 00:34N 36°47' E 023°45'8 8.4
2015-Jul-29 23:33N 36°38' E 023°47'8 8.2
2015-Jul-29 22:33N 36°30' E 023°49'21 8.4
2015-Jul-29 20:06N 36°10' E 023°55'5 8.4
2015-Jul-29 19:33N 36°05' E 023°56'17 8.4
2015-Jul-29 17:33N 35°49' E 023°60'8 7.7
2015-Jul-29 16:31N 35°41' E 024°01'7 7.5
2015-Jul-29 15:33N 35°34' E 024°03'1 0.2
2015-Jul-29 11:29N 35°33' E 024°03'0 0.0
2015-Jul-29 10:32N 35°33' E 024°03'0 0.0
2015-Jul-29 09:26N 35°33' E 024°03'0 0.0
2015-Jul-29 04:17N 35°33' E 024°03'4 5.5
2015-Jul-29 03:30N 35°37' E 024°02'8 8.4
2015-Jul-29 02:33N 35°45' E 024°00'8 8.1
2015-Jul-29 01:33N 35°53' E 023°59'8 7.9
2015-Jul-29 00:33N 36°01' E 023°58'8 8.0
2015-Jul-28 23:33N 36°08' E 023°55'8 7.8
2015-Jul-28 22:33N 36°16' E 023°53'8 7.8
2015-Jul-28 21:33N 36°24' E 023°51'8 8.1
2015-Jul-28 20:33N 36°32' E 023°49'8 8.5
2015-Jul-28 19:34N 36°40' E 023°48'8 8.3
2015-Jul-28 18:34N 36°48' E 023°45'8 8.0
2015-Jul-28 17:33N 36°56' E 023°43'8 7.8
2015-Jul-28 16:34N 37°04' E 023°41'8 7.8
2015-Jul-28 15:33N 37°11' E 023°40'8 7.8
2015-Jul-28 14:34N 37°19' E 023°39'8 7.5
2015-Jul-28 13:34N 37°26' E 023°36'8 7.8
2015-Jul-28 12:34N 37°33' E 023°31'8 7.5
2015-Jul-28 11:33N 37°39' E 023°25'7 7.0
2015-Jul-28 10:33N 37°42' E 023°17'8 8.0
2015-Jul-28 09:30N 37°49' E 023°11'7 0.4
2015-Jul-27 14:10N 37°55' E 023°05'0 0.0
2015-Jul-26 19:04N 37°55' E 023°06'0 0.0
2015-Jul-26 18:16N 37°55' E 023°06'0 0.0
2015-Jul-26 17:22N 37°55' E 023°06'0 0.0
2015-Jul-26 16:28N 37°55' E 023°06'3 2.9
2015-Jul-26 15:33N 37°53' E 023°08'9 9.0
2015-Jul-26 14:33N 37°46' E 023°15'8 8.1
2015-Jul-26 13:33N 37°40' E 023°22'9 8.7
2015-Jul-26 12:33N 37°36' E 023°32'9 9.1
2015-Jul-26 11:33N 37°27' E 023°35'9 8.6
2015-Jul-26 10:33N 37°19' E 023°37'9 8.8
2015-Jul-26 09:33N 37°10' E 023°39'9 9.2
2015-Jul-26 08:33N 37°01' E 023°42'13 8.8
2015-Jul-26 07:05N 36°49' E 023°45'6 8.8
2015-Jul-26 06:25N 36°43' E 023°47'17 8.5
2015-Jul-26 04:27N 36°27' E 023°51'8 8.6
2015-Jul-26 03:33N 36°19' E 023°53'8 8.4
2015-Jul-26 02:33N 36°11' E 023°55'9 8.4
2015-Jul-26 01:31N 36°02' E 023°57'11 8.1
2015-Jul-26 00:09N 35°51' E 023°59'5 8.5
2015-Jul-25 23:32N 35°46' E 023°60'8 8.5
2015-Jul-25 22:33N 35°38' E 024°02'5 1.0
2015-Jul-25 17:33N 35°33' E 024°03'1 0.1
2015-Jul-25 11:15N 35°34' E 024°03'6 8.4
2015-Jul-25 10:33N 35°39' E 024°02'21 8.5
2015-Jul-25 08:05N 35°60' E 023°57'55 8.1
2015-Jul-25 01:16N 36°54' E 023°43'6 8.3
2015-Jul-25 00:33N 36°60' E 023°42'10 8.3
2015-Jul-24 23:18N 37°10' E 023°39'6 7.7
2015-Jul-24 22:33N 37°16' E 023°38'  
Track history (hours):
 
Tides and Currents Weather Stations Pressure Air Temp Water Temp Dewpoint Dewpoint Depression Visibility Wind Speed Wind Dir Waves Ship Positions

M/T Arcadia

Last reported at 2015-Aug-03 22:20 UTC. Time now 2015-Aug-04 19:54 UTC.
Position N 37°23' E 023°39'.

Length 76 m; draft 4.7 m.

Type: Tanker. MMSI: 240560000.

Date/timePositionNaut miles runAvg speedWind from/ knotsBaromVisibWave heightAir tempDewpointWater temp
2015-Aug-03 22:20N 37°23' E 023°39'6 7.5
2015-Aug-03 21:33N 37°28' E 023°35'8 8.1
2015-Aug-03 20:33N 37°35' E 023°29'7 7.2
2015-Aug-03 19:33N 37°39' E 023°22'7 6.6
2015-Aug-03 18:33N 37°44' E 023°16'8 7.7
2015-Aug-03 17:28N 37°51' E 023°10'5 0.3
2015-Aug-02 20:33N 37°55' E 023°06'2 0.4
2015-Aug-02 15:33N 37°53' E 023°08'8 8.5
2015-Aug-02 14:33N 37°46' E 023°14'8 8.1
2015-Aug-02 13:33N 37°40' E 023°20'9 8.7
2015-Aug-02 12:34N 37°37' E 023°30'8 7.8
2015-Aug-02 11:34N 37°30' E 023°35'7 7.4
2015-Aug-02 10:33N 37°23' E 023°36'7 7.3
2015-Aug-02 09:34N 37°17' E 023°31'8 7.5
2015-Aug-02 08:33N 37°10' E 023°27'8 7.6
2015-Aug-02 07:33N 37°03' E 023°24'16 6.9
2015-Aug-02 05:11N 36°48' E 023°15'4 6.2
2015-Aug-02 04:28N 36°44' E 023°13'75 7.3
2015-Aug-01 18:14N 35°40' E 023°59'7 7.9
2015-Aug-01 17:23N 35°34' E 024°03'16 1.1
2015-Aug-01 02:31N 35°49' E 024°01'11 8.1
2015-Aug-01 01:06N 36°00' E 023°58'4 8.0
2015-Aug-01 00:33N 36°05' E 023°57'10 8.0
2015-Jul-31 23:16N 36°15' E 023°54'48 7.9
2015-Jul-31 17:15N 37°01' E 023°42'5 7.8
2015-Jul-31 16:33N 37°07' E 023°41'8 7.2
2015-Jul-31 15:25N 37°15' E 023°39'6 7.0
2015-Jul-31 14:33N 37°21' E 023°38'7 7.1
2015-Jul-31 13:33N 37°27' E 023°35'8 7.5
2015-Jul-31 12:33N 37°34' E 023°30'7 7.1
2015-Jul-31 11:33N 37°39' E 023°24'7 6.6
2015-Jul-31 10:33N 37°43' E 023°17'8 7.6
2015-Jul-31 09:33N 37°49' E 023°12'8 0.4
2015-Jul-30 13:28N 37°55' E 023°05'1 0.5
2015-Jul-30 12:20N 37°55' E 023°06'4 1.5
2015-Jul-30 09:33N 37°52' E 023°10'9 8.6
2015-Jul-30 08:33N 37°44' E 023°15'8 7.9
2015-Jul-30 07:33N 37°39' E 023°23'8 7.9
2015-Jul-30 06:33N 37°36' E 023°32'8 8.0
2015-Jul-30 05:33N 37°28' E 023°36'9 8.5
2015-Jul-30 04:33N 37°20' E 023°37'8 8.4
2015-Jul-30 03:33N 37°12' E 023°38'9 8.6
2015-Jul-30 02:34N 37°03' E 023°41'9 8.6
2015-Jul-30 01:33N 36°55' E 023°43'8 8.5
2015-Jul-30 00:34N 36°47' E 023°45'8 8.4
2015-Jul-29 23:33N 36°38' E 023°47'8 8.2
2015-Jul-29 22:33N 36°30' E 023°49'21 8.4
2015-Jul-29 20:06N 36°10' E 023°55'5 8.4
2015-Jul-29 19:33N 36°05' E 023°56'17 8.4
2015-Jul-29 17:33N 35°49' E 023°60'8 7.7
2015-Jul-29 16:31N 35°41' E 024°01'7 7.5
2015-Jul-29 15:33N 35°34' E 024°03'1 0.2
2015-Jul-29 11:29N 35°33' E 024°03'0 0.0
2015-Jul-29 10:32N 35°33' E 024°03'0 0.0
2015-Jul-29 09:26N 35°33' E 024°03'0 0.0
2015-Jul-29 04:17N 35°33' E 024°03'4 5.5
2015-Jul-29 03:30N 35°37' E 024°02'8 8.4
2015-Jul-29 02:33N 35°45' E 024°00'8 8.1
2015-Jul-29 01:33N 35°53' E 023°59'8 7.9
2015-Jul-29 00:33N 36°01' E 023°58'8 8.0
2015-Jul-28 23:33N 36°08' E 023°55'8 7.8
2015-Jul-28 22:33N 36°16' E 023°53'8 7.8
2015-Jul-28 21:33N 36°24' E 023°51'8 8.1
2015-Jul-28 20:33N 36°32' E 023°49'8 8.5
2015-Jul-28 19:34N 36°40' E 023°48'8 8.3
2015-Jul-28 18:34N 36°48' E 023°45'8 8.0
2015-Jul-28 17:33N 36°56' E 023°43'8 7.8
2015-Jul-28 16:34N 37°04' E 023°41'8 7.8
2015-Jul-28 15:33N 37°11' E 023°40'8 7.8
2015-Jul-28 14:34N 37°19' E 023°39'8 7.5
2015-Jul-28 13:34N 37°26' E 023°36'8 7.8
2015-Jul-28 12:34N 37°33' E 023°31'8 7.5
2015-Jul-28 11:33N 37°39' E 023°25'7 7.0
2015-Jul-28 10:33N 37°42' E 023°17'8 8.0
2015-Jul-28 09:30N 37°49' E 023°11'7 0.4
2015-Jul-27 14:10N 37°55' E 023°05'0 0.0
2015-Jul-26 19:04N 37°55' E 023°06'0 0.0
2015-Jul-26 18:16N 37°55' E 023°06'0 0.0
2015-Jul-26 17:22N 37°55' E 023°06'0 0.0
2015-Jul-26 16:28N 37°55' E 023°06'3 2.9
2015-Jul-26 15:33N 37°53' E 023°08'9 9.0
2015-Jul-26 14:33N 37°46' E 023°15'8 8.1
2015-Jul-26 13:33N 37°40' E 023°22'9 8.7
2015-Jul-26 12:33N 37°36' E 023°32'9 9.1
2015-Jul-26 11:33N 37°27' E 023°35'9 8.6
2015-Jul-26 10:33N 37°19' E 023°37'9 8.8
2015-Jul-26 09:33N 37°10' E 023°39'9 9.2
2015-Jul-26 08:33N 37°01' E 023°42'13 8.8
2015-Jul-26 07:05N 36°49' E 023°45'6 8.8
2015-Jul-26 06:25N 36°43' E 023°47'17 8.5
2015-Jul-26 04:27N 36°27' E 023°51'8 8.6
2015-Jul-26 03:33N 36°19' E 023°53'8 8.4
2015-Jul-26 02:33N 36°11' E 023°55'9 8.4
2015-Jul-26 01:31N 36°02' E 023°57'11 8.1
2015-Jul-26 00:09N 35°51' E 023°59'5 8.5
2015-Jul-25 23:32N 35°46' E 023°60'8 8.5
2015-Jul-25 22:33N 35°38' E 024°02'5 1.0
2015-Jul-25 17:33N 35°33' E 024°03'1 0.1
2015-Jul-25 11:15N 35°34' E 024°03'6 8.4
2015-Jul-25 10:33N 35°39' E 024°02'21 8.5
2015-Jul-25 08:05N 35°60' E 023°57'55 8.1
2015-Jul-25 01:16N 36°54' E 023°43'6 8.3
2015-Jul-25 00:33N 36°60' E 023°42'10 8.3
2015-Jul-24 23:18N 37°10' E 023°39'6 7.7
2015-Jul-24 22:33N 37°16' E 023°38'  

Dump ship's entire track history